sensor_id;sensor_type;location;lat;lon;timestamp;pressure;altitude;pressure_sealevel;temperature;humidity
53522;BME280;39398;48.382;9.802;2023-02-20T00:04:58;94809.44;;;6.82;100.00
53522;BME280;39398;48.382;9.802;2023-02-20T00:10:02;94821.72;;;6.82;100.00
53522;BME280;39398;48.382;9.802;2023-02-20T00:15:04;94819.00;;;7.01;100.00
53522;BME280;39398;48.382;9.802;2023-02-20T00:20:06;94829.75;;;6.80;100.00
53522;BME280;39398;48.382;9.802;2023-02-20T00:25:10;94824.41;;;6.72;100.00
53522;BME280;39398;48.382;9.802;2023-02-20T00:30:15;94820.75;;;6.83;100.00
53522;BME280;39398;48.382;9.802;2023-02-20T00:35:18;94828.28;;;6.95;100.00
53522;BME280;39398;48.382;9.802;2023-02-20T00:40:23;94831.22;;;6.92;100.00
53522;BME280;39398;48.382;9.802;2023-02-20T00:45:25;94817.53;;;6.89;100.00
53522;BME280;39398;48.382;9.802;2023-02-20T00:50:26;94817.31;;;6.82;100.00
53522;BME280;39398;48.382;9.802;2023-02-20T00:55:29;94815.53;;;7.01;100.00
53522;BME280;39398;48.382;9.802;2023-02-20T01:00:31;94817.31;;;6.82;100.00
53522;BME280;39398;48.382;9.802;2023-02-20T01:05:32;94814.63;;;6.92;100.00
53522;BME280;39398;48.382;9.802;2023-02-20T01:10:35;94820.09;;;6.81;100.00
53522;BME280;39398;48.382;9.802;2023-02-20T01:15:36;94835.53;;;6.56;100.00
53522;BME280;39398;48.382;9.802;2023-02-20T01:20:38;94837.78;;;6.41;100.00
53522;BME280;39398;48.382;9.802;2023-02-20T01:25:41;94837.72;;;6.61;100.00
53522;BME280;39398;48.382;9.802;2023-02-20T01:30:42;94831.59;;;6.70;100.00
53522;BME280;39398;48.382;9.802;2023-02-20T01:35:44;94820.91;;;6.81;100.00
53522;BME280;39398;48.382;9.802;2023-02-20T01:40:48;94824.44;;;6.62;100.00
53522;BME280;39398;48.382;9.802;2023-02-20T01:45:49;94820.66;;;6.74;100.00
53522;BME280;39398;48.382;9.802;2023-02-20T01:50:56;94817.84;;;6.58;100.00
53522;BME280;39398;48.382;9.802;2023-02-20T01:56:04;94807.97;;;6.70;100.00
53522;BME280;39398;48.382;9.802;2023-02-20T02:01:08;94807.53;;;7.02;100.00
53522;BME280;39398;48.382;9.802;2023-02-20T02:06:12;94809.38;;;6.92;100.00
53522;BME280;39398;48.382;9.802;2023-02-20T02:11:18;94809.97;;;6.58;100.00
53522;BME280;39398;48.382;9.802;2023-02-20T02:16:26;94802.31;;;6.74;100.00
53522;BME280;39398;48.382;9.802;2023-02-20T02:27:36;94800.50;;;6.75;100.00
53522;BME280;39398;48.382;9.802;2023-02-20T02:33:01;94805.16;;;6.53;100.00
53522;BME280;39398;48.382;9.802;2023-02-20T02:38:13;94789.53;;;6.62;100.00
53522;BME280;39398;48.382;9.802;2023-02-20T02:43:24;94776.13;;;6.65;100.00
53522;BME280;39398;48.382;9.802;2023-02-20T02:48:31;94776.06;;;6.47;100.00
53522;BME280;39398;48.382;9.802;2023-02-20T02:53:37;94770.28;;;6.43;100.00
53522;BME280;39398;48.382;9.802;2023-02-20T02:58:38;94769.75;;;6.40;100.00
53522;BME280;39398;48.382;9.802;2023-02-20T03:03:42;94773.94;;;6.33;100.00
53522;BME280;39398;48.382;9.802;2023-02-20T03:08:50;94772.56;;;6.19;100.00
53522;BME280;39398;48.382;9.802;2023-02-20T03:13:58;94771.38;;;6.13;100.00
53522;BME280;39398;48.382;9.802;2023-02-20T03:19:04;94783.59;;;5.75;100.00
53522;BME280;39398;48.382;9.802;2023-02-20T03:24:12;94776.72;;;5.74;100.00
53522;BME280;39398;48.382;9.802;2023-02-20T03:29:18;94766.91;;;5.67;100.00
53522;BME280;39398;48.382;9.802;2023-02-20T03:34:25;94762.97;;;5.90;100.00
53522;BME280;39398;48.382;9.802;2023-02-20T03:39:31;94763.72;;;5.73;100.00
53522;BME280;39398;48.382;9.802;2023-02-20T03:44:33;94763.19;;;5.69;100.00
53522;BME280;39398;48.382;9.802;2023-02-20T03:49:38;94768.16;;;5.72;100.00
53522;BME280;39398;48.382;9.802;2023-02-20T03:54:43;94760.19;;;5.35;100.00
53522;BME280;39398;48.382;9.802;2023-02-20T03:59:47;94762.81;;;5.16;100.00
53522;BME280;39398;48.382;9.802;2023-02-20T04:04:52;94770.41;;;5.28;100.00
53522;BME280;39398;48.382;9.802;2023-02-20T04:09:59;94765.16;;;5.38;100.00
53522;BME280;39398;48.382;9.802;2023-02-20T04:15:04;94757.84;;;5.32;100.00
53522;BME280;39398;48.382;9.802;2023-02-20T04:20:07;94754.84;;;5.36;100.00
53522;BME280;39398;48.382;9.802;2023-02-20T04:25:14;94743.69;;;5.25;100.00
53522;BME280;39398;48.382;9.802;2023-02-20T04:30:18;94759.50;;;5.13;100.00
53522;BME280;39398;48.382;9.802;2023-02-20T04:35:20;94764.34;;;5.28;100.00
53522;BME280;39398;48.382;9.802;2023-02-20T04:40:24;94765.72;;;5.03;100.00
53522;BME280;39398;48.382;9.802;2023-02-20T04:45:25;94766.97;;;4.99;100.00
53522;BME280;39398;48.382;9.802;2023-02-20T04:50:29;94767.09;;;5.17;100.00
53522;BME280;39398;48.382;9.802;2023-02-20T04:55:33;94772.03;;;5.29;100.00
53522;BME280;39398;48.382;9.802;2023-02-20T05:00:34;94760.38;;;5.14;100.00
53522;BME280;39398;48.382;9.802;2023-02-20T05:05:36;94765.59;;;5.33;100.00
53522;BME280;39398;48.382;9.802;2023-02-20T05:10:39;94764.34;;;5.38;100.00
53522;BME280;39398;48.382;9.802;2023-02-20T05:15:40;94759.22;;;5.26;100.00
53522;BME280;39398;48.382;9.802;2023-02-20T05:20:42;94753.88;;;5.08;100.00
53522;BME280;39398;48.382;9.802;2023-02-20T05:25:45;94761.56;;;5.29;100.00
53522;BME280;39398;48.382;9.802;2023-02-20T05:30:46;94754.56;;;5.10;100.00
53522;BME280;39398;48.382;9.802;2023-02-20T05:35:48;94751.38;;;4.97;100.00
53522;BME280;39398;48.382;9.802;2023-02-20T05:40:51;94756.50;;;4.99;100.00
53522;BME280;39398;48.382;9.802;2023-02-20T05:45:52;94753.06;;;4.98;100.00
53522;BME280;39398;48.382;9.802;2023-02-20T05:50:54;94756.22;;;5.02;100.00
53522;BME280;39398;48.382;9.802;2023-02-20T05:55:57;94745.47;;;5.15;100.00
53522;BME280;39398;48.382;9.802;2023-02-20T06:00:59;94761.03;;;4.97;100.00
53522;BME280;39398;48.382;9.802;2023-02-20T06:06:00;94754.53;;;4.91;100.00
53522;BME280;39398;48.382;9.802;2023-02-20T06:11:03;94756.22;;;5.02;100.00
53522;BME280;39398;48.382;9.802;2023-02-20T06:16:05;94767.94;;;5.36;100.00
53522;BME280;39398;48.382;9.802;2023-02-20T06:21:07;94751.66;;;5.13;100.00
53522;BME280;39398;48.382;9.802;2023-02-20T06:26:11;94755.53;;;5.00;100.00
53522;BME280;39398;48.382;9.802;2023-02-20T06:31:20;94769.44;;;5.10;100.00
53522;BME280;39398;48.382;9.802;2023-02-20T06:36:24;94776.88;;;5.05;100.00
53522;BME280;39398;48.382;9.802;2023-02-20T06:41:27;94783.91;;;5.24;100.00
53522;BME280;39398;48.382;9.802;2023-02-20T06:46:29;94782.66;;;5.28;100.00
53522;BME280;39398;48.382;9.802;2023-02-20T06:51:32;94775.91;;;5.16;100.00
53522;BME280;39398;48.382;9.802;2023-02-20T06:56:35;94780.75;;;5.20;100.00
53522;BME280;39398;48.382;9.802;2023-02-20T07:01:39;94793.56;;;5.23;100.00
53522;BME280;39398;48.382;9.802;2023-02-20T07:06:41;94789.44;;;5.30;100.00
53522;BME280;39398;48.382;9.802;2023-02-20T07:11:44;94792.59;;;5.53;100.00
53522;BME280;39398;48.382;9.802;2023-02-20T07:16:45;94798.84;;;5.99;99.42
53522;BME280;39398;48.382;9.802;2023-02-20T07:21:47;94788.75;;;6.14;98.77
53522;BME280;39398;48.382;9.802;2023-02-20T07:26:49;94787.69;;;6.07;98.45
53522;BME280;39398;48.382;9.802;2023-02-20T07:31:51;94796.72;;;6.32;96.74
53522;BME280;39398;48.382;9.802;2023-02-20T07:36:53;94803.41;;;6.07;95.85
53522;BME280;39398;48.382;9.802;2023-02-20T07:41:56;94798.47;;;6.32;94.90
53522;BME280;39398;48.382;9.802;2023-02-20T07:46:57;94796.94;;;6.01;94.36
53522;BME280;39398;48.382;9.802;2023-02-20T07:51:59;94789.56;;;6.15;93.56
53522;BME280;39398;48.382;9.802;2023-02-20T07:57:02;94789.75;;;6.41;92.23
53522;BME280;39398;48.382;9.802;2023-02-20T08:02:04;94785.63;;;6.66;91.09
53522;BME280;39398;48.382;9.802;2023-02-20T08:07:05;94777.47;;;6.69;89.81
53522;BME280;39398;48.382;9.802;2023-02-20T08:12:08;94777.72;;;7.11;88.14
53522;BME280;39398;48.382;9.802;2023-02-20T08:17:10;94782.19;;;7.29;87.01
53522;BME280;39398;48.382;9.802;2023-02-20T08:22:11;94775.50;;;7.78;84.78
53522;BME280;39398;48.382;9.802;2023-02-20T08:27:14;94761.50;;;7.96;85.09
53522;BME280;39398;48.382;9.802;2023-02-20T08:32:16;94774.75;;;7.86;85.13
53522;BME280;39398;48.382;9.802;2023-02-20T08:37:17;94752.91;;;7.85;85.04
53522;BME280;39398;48.382;9.802;2023-02-20T08:42:20;94758.09;;;8.03;83.40
53522;BME280;39398;48.382;9.802;2023-02-20T08:47:22;94751.13;;;8.46;81.89
53522;BME280;39398;48.382;9.802;2023-02-20T08:52:24;94747.44;;;8.73;81.00
53522;BME280;39398;48.382;9.802;2023-02-20T08:57:26;94740.69;;;8.79;79.08
53522;BME280;39398;48.382;9.802;2023-02-20T09:02:28;94734.06;;;9.25;78.67
53522;BME280;39398;48.382;9.802;2023-02-20T09:07:30;94727.09;;;9.08;78.07
53522;BME280;39398;48.382;9.802;2023-02-20T09:12:33;94720.69;;;9.11;77.69
53522;BME280;39398;48.382;9.802;2023-02-20T09:17:34;94724.00;;;9.37;77.37
53522;BME280;39398;48.382;9.802;2023-02-20T09:22:36;94730.91;;;9.63;76.79
53522;BME280;39398;48.382;9.802;2023-02-20T09:27:39;94717.06;;;9.69;74.15
53522;BME280;39398;48.382;9.802;2023-02-20T09:32:40;94709.31;;;9.75;73.82
53522;BME280;39398;48.382;9.802;2023-02-20T09:37:42;94698.88;;;10.07;73.77
53522;BME280;39398;48.382;9.802;2023-02-20T09:42:56;94696.25;;;10.54;71.36
53522;BME280;39398;48.382;9.802;2023-02-20T09:48:08;94693.66;;;10.77;69.35
53522;BME280;39398;48.382;9.802;2023-02-20T09:53:18;94693.16;;;10.82;68.71
53522;BME280;39398;48.382;9.802;2023-02-20T09:58:27;94693.97;;;11.28;65.83
53522;BME280;39398;48.382;9.802;2023-02-20T10:03:31;94693.63;;;11.08;65.50
53522;BME280;39398;48.382;9.802;2023-02-20T10:08:34;94692.44;;;11.34;64.95
53522;BME280;39398;48.382;9.802;2023-02-20T10:13:47;94685.63;;;11.16;62.19
53522;BME280;39398;48.382;9.802;2023-02-20T10:18:59;94682.66;;;11.57;63.55
53522;BME280;39398;48.382;9.802;2023-02-20T10:24:24;94685.84;;;11.53;61.51
53522;BME280;39398;48.382;9.802;2023-02-20T10:29:32;94673.00;;;11.88;63.28
53522;BME280;39398;48.382;9.802;2023-02-20T10:34:40;94669.81;;;12.07;57.95
53522;BME280;39398;48.382;9.802;2023-02-20T10:39:47;94667.06;;;12.30;61.67
53522;BME280;39398;48.382;9.802;2023-02-20T10:44:56;94656.66;;;12.43;59.32
53522;BME280;39398;48.382;9.802;2023-02-20T10:50:04;94651.19;;;12.45;59.54
53522;BME280;39398;48.382;9.802;2023-02-20T10:55:11;94642.88;;;12.18;58.27
53522;BME280;39398;48.382;9.802;2023-02-20T11:00:19;94642.72;;;12.05;59.72
53522;BME280;39398;48.382;9.802;2023-02-20T11:05:27;94620.28;;;12.52;59.01
53522;BME280;39398;48.382;9.802;2023-02-20T11:10:34;94616.91;;;12.58;56.76
53522;BME280;39398;48.382;9.802;2023-02-20T11:15:37;94625.47;;;12.60;58.34
53522;BME280;39398;48.382;9.802;2023-02-20T11:20:44;94624.44;;;12.97;56.79
53522;BME280;39398;48.382;9.802;2023-02-20T11:25:46;94620.25;;;13.24;57.37
53522;BME280;39398;48.382;9.802;2023-02-20T11:30:57;94619.50;;;12.73;53.16
53522;BME280;39398;48.382;9.802;2023-02-20T11:36:09;94614.41;;;12.93;53.51
53522;BME280;39398;48.382;9.802;2023-02-20T11:41:23;94613.84;;;12.97;50.60
53522;BME280;39398;48.382;9.802;2023-02-20T11:46:27;94610.97;;;12.56;51.02
53522;BME280;39398;48.382;9.802;2023-02-20T11:51:35;94585.19;;;12.28;49.56
53522;BME280;39398;48.382;9.802;2023-02-20T11:56:37;94583.63;;;12.70;53.71
53522;BME280;39398;48.382;9.802;2023-02-20T12:01:40;94588.63;;;12.80;49.66
53522;BME280;39398;48.382;9.802;2023-02-20T12:06:45;94585.72;;;12.60;49.32
53522;BME280;39398;48.382;9.802;2023-02-20T12:11:48;94575.91;;;12.97;52.71
53522;BME280;39398;48.382;9.802;2023-02-20T12:17:12;94575.03;;;12.90;49.43
53522;BME280;39398;48.382;9.802;2023-02-20T12:22:27;94568.28;;;13.09;49.33
53522;BME280;39398;48.382;9.802;2023-02-20T12:27:42;94561.59;;;12.91;49.54
53522;BME280;39398;48.382;9.802;2023-02-20T12:32:54;94546.81;;;13.53;47.30
53522;BME280;39398;48.382;9.802;2023-02-20T12:38:18;94539.00;;;13.45;46.96
53522;BME280;39398;48.382;9.802;2023-02-20T12:43:34;94519.75;;;13.36;47.81
53522;BME280;39398;48.382;9.802;2023-02-20T12:48:54;94517.41;;;13.48;45.55
53522;BME280;39398;48.382;9.802;2023-02-20T12:54:15;94518.34;;;13.75;45.09
53522;BME280;39398;48.382;9.802;2023-02-20T12:59:27;94507.44;;;13.50;46.76
53522;BME280;39398;48.382;9.802;2023-02-20T13:04:34;94500.06;;;13.93;44.48
53522;BME280;39398;48.382;9.802;2023-02-20T13:09:43;94491.22;;;13.73;42.24
53522;BME280;39398;48.382;9.802;2023-02-20T13:14:58;94486.03;;;13.58;42.60
53522;BME280;39398;48.382;9.802;2023-02-20T13:20:12;94487.16;;;13.77;43.69
53522;BME280;39398;48.382;9.802;2023-02-20T13:25:45;94484.88;;;13.74;41.27
53522;BME280;39398;48.382;9.802;2023-02-20T13:31:06;94473.75;;;13.51;46.32
53522;BME280;39398;48.382;9.802;2023-02-20T13:41:56;94464.34;;;13.89;45.31
53522;BME280;39398;48.382;9.802;2023-02-20T13:46:59;94455.03;;;13.65;39.64
53522;BME280;39398;48.382;9.802;2023-02-20T13:52:29;94450.03;;;13.84;42.20
53522;BME280;39398;48.382;9.802;2023-02-20T13:57:32;94440.50;;;13.55;39.02
53522;BME280;39398;48.382;9.802;2023-02-20T14:02:39;94427.59;;;13.86;37.70
53522;BME280;39398;48.382;9.802;2023-02-20T14:07:45;94411.44;;;13.81;35.90
53522;BME280;39398;48.382;9.802;2023-02-20T14:12:52;94418.34;;;13.69;36.85
53522;BME280;39398;48.382;9.802;2023-02-20T14:17:56;94410.00;;;13.72;34.74
53522;BME280;39398;48.382;9.802;2023-02-20T14:23:16;94395.53;;;13.88;34.49
53522;BME280;39398;48.382;9.802;2023-02-20T14:28:18;94398.94;;;13.68;34.94
53522;BME280;39398;48.382;9.802;2023-02-20T14:33:25;94405.00;;;13.56;38.59
53522;BME280;39398;48.382;9.802;2023-02-20T14:38:48;94392.41;;;13.64;33.91
53522;BME280;39398;48.382;9.802;2023-02-20T14:43:56;94386.31;;;13.77;37.40
53522;BME280;39398;48.382;9.802;2023-02-20T14:49:06;94380.13;;;13.57;37.28
53522;BME280;39398;48.382;9.802;2023-02-20T14:54:18;94384.66;;;13.63;36.94
53522;BME280;39398;48.382;9.802;2023-02-20T14:59:25;94397.56;;;13.86;35.42
53522;BME280;39398;48.382;9.802;2023-02-20T15:04:27;94381.28;;;13.41;36.96
53522;BME280;39398;48.382;9.802;2023-02-20T15:09:39;94367.03;;;13.48;36.98
53522;BME280;39398;48.382;9.802;2023-02-20T15:14:42;94362.38;;;13.51;35.92
53522;BME280;39398;48.382;9.802;2023-02-20T15:19:44;94380.81;;;13.72;35.30
53522;BME280;39398;48.382;9.802;2023-02-20T15:24:47;94365.50;;;13.74;33.65
53522;BME280;39398;48.382;9.802;2023-02-20T15:30:07;94358.81;;;13.85;33.43
53522;BME280;39398;48.382;9.802;2023-02-20T15:35:13;94355.31;;;13.30;36.98
53522;BME280;39398;48.382;9.802;2023-02-20T15:40:20;94354.97;;;13.46;36.61
53522;BME280;39398;48.382;9.802;2023-02-20T15:45:23;94369.78;;;13.27;35.17
53522;BME280;39398;48.382;9.802;2023-02-20T15:50:25;94377.91;;;13.19;38.18
53522;BME280;39398;48.382;9.802;2023-02-20T15:55:31;94362.56;;;13.14;37.72
53522;BME280;39398;48.382;9.802;2023-02-20T16:00:33;94364.38;;;13.07;38.65
53522;BME280;39398;48.382;9.802;2023-02-20T16:05:34;94355.41;;;12.45;39.24
53522;BME280;39398;48.382;9.802;2023-02-20T16:10:37;94363.97;;;12.47;40.47
53522;BME280;39398;48.382;9.802;2023-02-20T16:15:39;94355.00;;;12.20;39.57
53522;BME280;39398;48.382;9.802;2023-02-20T16:20:41;94346.47;;;11.97;39.66
53522;BME280;39398;48.382;9.802;2023-02-20T16:25:44;94352.94;;;12.16;38.43
53522;BME280;39398;48.382;9.802;2023-02-20T16:30:45;94350.22;;;12.09;38.96
53522;BME280;39398;48.382;9.802;2023-02-20T16:35:49;94357.25;;;11.80;40.96
53522;BME280;39398;48.382;9.802;2023-02-20T16:40:52;94367.88;;;11.66;40.97
53522;BME280;39398;48.382;9.802;2023-02-20T16:45:53;94350.84;;;12.11;40.23
53522;BME280;39398;48.382;9.802;2023-02-20T16:50:55;94354.31;;;12.12;39.94
53522;BME280;39398;48.382;9.802;2023-02-20T16:55:58;94353.56;;;11.96;40.83
53522;BME280;39398;48.382;9.802;2023-02-20T17:01:00;94358.19;;;11.73;40.75
53522;BME280;39398;48.382;9.802;2023-02-20T17:06:01;94351.56;;;11.83;41.08
53522;BME280;39398;48.382;9.802;2023-02-20T17:11:05;94349.16;;;12.03;40.65
53522;BME280;39398;48.382;9.802;2023-02-20T17:16:07;94352.88;;;12.09;39.98
53522;BME280;39398;48.382;9.802;2023-02-20T17:21:09;94348.00;;;11.70;39.78
53522;BME280;39398;48.382;9.802;2023-02-20T17:26:11;94354.59;;;11.80;40.59
53522;BME280;39398;48.382;9.802;2023-02-20T17:31:14;94359.69;;;11.60;41.19
53522;BME280;39398;48.382;9.802;2023-02-20T17:36:16;94361.50;;;11.60;41.87
53522;BME280;39398;48.382;9.802;2023-02-20T17:41:19;94357.00;;;11.39;42.39
53522;BME280;39398;48.382;9.802;2023-02-20T17:46:20;94360.03;;;11.36;42.73
53522;BME280;39398;48.382;9.802;2023-02-20T17:51:22;94359.78;;;11.16;43.04
53522;BME280;39398;48.382;9.802;2023-02-20T17:56:25;94351.97;;;10.93;43.41
53522;BME280;39398;48.382;9.802;2023-02-20T18:01:27;94352.81;;;10.79;44.39
53522;BME280;39398;48.382;9.802;2023-02-20T18:06:28;94356.22;;;10.94;44.56
53522;BME280;39398;48.382;9.802;2023-02-20T18:11:32;94353.78;;;10.48;46.44
53522;BME280;39398;48.382;9.802;2023-02-20T18:16:34;94351.84;;;10.42;46.26
53522;BME280;39398;48.382;9.802;2023-02-20T18:21:43;94351.69;;;10.43;45.94
53522;BME280;39398;48.382;9.802;2023-02-20T18:26:52;94351.06;;;10.56;46.02
53522;BME280;39398;48.382;9.802;2023-02-20T18:31:54;94345.66;;;10.50;45.96
53522;BME280;39398;48.382;9.802;2023-02-20T18:36:56;94349.66;;;10.45;46.41
53522;BME280;39398;48.382;9.802;2023-02-20T18:41:58;94337.09;;;10.33;46.56
53522;BME280;39398;48.382;9.802;2023-02-20T18:47:00;94329.59;;;10.59;47.81
53522;BME280;39398;48.382;9.802;2023-02-20T18:52:02;94333.28;;;10.35;47.48
53522;BME280;39398;48.382;9.802;2023-02-20T18:57:05;94335.47;;;10.09;47.94
53522;BME280;39398;48.382;9.802;2023-02-20T19:02:06;94331.53;;;10.05;47.38
53522;BME280;39398;48.382;9.802;2023-02-20T19:07:12;94323.47;;;10.06;47.29
53522;BME280;39398;48.382;9.802;2023-02-20T19:12:39;94330.63;;;9.74;47.43
53522;BME280;39398;48.382;9.802;2023-02-20T19:17:43;94319.44;;;9.72;46.94
53522;BME280;39398;48.382;9.802;2023-02-20T19:22:45;94313.75;;;9.84;46.46
53522;BME280;39398;48.382;9.802;2023-02-20T19:27:48;94308.75;;;9.89;46.84
53522;BME280;39398;48.382;9.802;2023-02-20T19:32:49;94310.44;;;9.67;46.92
53522;BME280;39398;48.382;9.802;2023-02-20T19:37:51;94311.75;;;9.63;46.55
53522;BME280;39398;48.382;9.802;2023-02-20T19:42:54;94310.19;;;9.53;46.19
53522;BME280;39398;48.382;9.802;2023-02-20T19:47:55;94314.59;;;9.07;47.74
53522;BME280;39398;48.382;9.802;2023-02-20T19:52:58;94311.94;;;8.76;47.10
53522;BME280;39398;48.382;9.802;2023-02-20T19:58:01;94301.81;;;8.56;47.71
53522;BME280;39398;48.382;9.802;2023-02-20T20:03:04;94306.38;;;8.63;46.50
53522;BME280;39398;48.382;9.802;2023-02-20T20:08:06;94311.38;;;8.49;46.27
53522;BME280;39398;48.382;9.802;2023-02-20T20:13:08;94298.22;;;8.41;47.54
53522;BME280;39398;48.382;9.802;2023-02-20T20:18:10;94310.69;;;8.55;47.58
53522;BME280;39398;48.382;9.802;2023-02-20T20:23:12;94307.06;;;8.48;47.96
53522;BME280;39398;48.382;9.802;2023-02-20T20:28:15;94300.22;;;8.23;47.36
53522;BME280;39398;48.382;9.802;2023-02-20T20:33:17;94301.19;;;8.30;47.69
53522;BME280;39398;48.382;9.802;2023-02-20T20:38:19;94308.94;;;8.40;47.57
53522;BME280;39398;48.382;9.802;2023-02-20T20:43:22;94299.53;;;8.29;47.04
53522;BME280;39398;48.382;9.802;2023-02-20T20:48:23;94304.69;;;8.14;47.65
53522;BME280;39398;48.382;9.802;2023-02-20T20:53:25;94306.31;;;8.07;48.33
53522;BME280;39398;48.382;9.802;2023-02-20T20:58:28;94303.19;;;8.03;48.04
53522;BME280;39398;48.382;9.802;2023-02-20T21:03:29;94306.34;;;7.99;47.76
53522;BME280;39398;48.382;9.802;2023-02-20T21:08:31;94284.16;;;8.01;45.87
53522;BME280;39398;48.382;9.802;2023-02-20T21:13:34;94285.94;;;8.01;46.79
53522;BME280;39398;48.382;9.802;2023-02-20T21:18:35;94283.16;;;8.02;46.60
53522;BME280;39398;48.382;9.802;2023-02-20T21:23:38;94285.63;;;8.04;46.84
53522;BME280;39398;48.382;9.802;2023-02-20T21:28:41;94282.53;;;7.92;47.64
53522;BME280;39398;48.382;9.802;2023-02-20T21:33:43;94275.94;;;7.96;47.60
53522;BME280;39398;48.382;9.802;2023-02-20T21:38:45;94271.47;;;8.13;47.70
53522;BME280;39398;48.382;9.802;2023-02-20T21:43:47;94268.34;;;8.18;47.53
53522;BME280;39398;48.382;9.802;2023-02-20T21:48:49;94270.16;;;8.17;48.40
53522;BME280;39398;48.382;9.802;2023-02-20T21:53:51;94282.13;;;8.20;48.19
53522;BME280;39398;48.382;9.802;2023-02-20T21:58:53;94268.03;;;8.12;50.46
53522;BME280;39398;48.382;9.802;2023-02-20T22:03:55;94267.09;;;7.81;50.70
53522;BME280;39398;48.382;9.802;2023-02-20T22:08:57;94272.97;;;7.99;51.39
53522;BME280;39398;48.382;9.802;2023-02-20T22:14:00;94268.69;;;8.06;50.96
53522;BME280;39398;48.382;9.802;2023-02-20T22:19:01;94260.66;;;8.08;50.65
53522;BME280;39398;48.382;9.802;2023-02-20T22:24:03;94260.34;;;7.95;52.10
53522;BME280;39398;48.382;9.802;2023-02-20T22:29:06;94263.66;;;7.88;52.83
53522;BME280;39398;48.382;9.802;2023-02-20T22:34:08;94265.91;;;8.00;52.10
53522;BME280;39398;48.382;9.802;2023-02-20T22:39:10;94259.34;;;7.87;53.17
53522;BME280;39398;48.382;9.802;2023-02-20T22:44:13;94258.38;;;7.88;53.14
53522;BME280;39398;48.382;9.802;2023-02-20T22:49:15;94256.91;;;7.78;53.88
53522;BME280;39398;48.382;9.802;2023-02-20T22:54:20;94266.44;;;7.62;54.23
53522;BME280;39398;48.382;9.802;2023-02-20T22:59:23;94251.00;;;7.67;54.86
53522;BME280;39398;48.382;9.802;2023-02-20T23:04:24;94251.47;;;7.87;55.07
53522;BME280;39398;48.382;9.802;2023-02-20T23:09:26;94247.88;;;7.72;54.48
53522;BME280;39398;48.382;9.802;2023-02-20T23:14:29;94244.28;;;7.65;55.46
53522;BME280;39398;48.382;9.802;2023-02-20T23:19:30;94248.53;;;7.50;57.08
53522;BME280;39398;48.382;9.802;2023-02-20T23:24:32;94253.66;;;7.51;56.63
53522;BME280;39398;48.382;9.802;2023-02-20T23:29:35;94252.16;;;7.73;55.36
53522;BME280;39398;48.382;9.802;2023-02-20T23:34:36;94250.97;;;7.92;53.39
53522;BME280;39398;48.382;9.802;2023-02-20T23:39:38;94247.97;;;8.11;52.75
53522;BME280;39398;48.382;9.802;2023-02-20T23:44:41;94252.63;;;8.01;52.24
53522;BME280;39398;48.382;9.802;2023-02-20T23:49:43;94253.19;;;8.20;51.98
53522;BME280;39398;48.382;9.802;2023-02-20T23:54:44;94245.34;;;8.11;51.80
53522;BME280;39398;48.382;9.802;2023-02-20T23:59:47;94245.97;;;8.22;50.99
